createdAt,value
2019-02-05T00:01:30.120Z,7.07
2019-02-05T00:06:35.944Z,5.47
2019-02-05T00:11:41.385Z,8.07
2019-02-05T00:16:46.705Z,5.23
2019-02-05T00:21:52.117Z,5.50
2019-02-05T00:26:57.523Z,5.80
2019-02-05T00:32:02.883Z,6.37
2019-02-05T00:37:08.247Z,4.33
2019-02-05T00:42:13.872Z,6.40
2019-02-05T00:47:19.189Z,5.87
2019-02-05T00:52:24.635Z,5.87
2019-02-05T00:57:30.083Z,4.80
2019-02-05T01:02:35.365Z,7.23
2019-02-05T01:07:40.668Z,6.43
2019-02-05T01:12:46.067Z,5.53
2019-02-05T01:17:51.874Z,5.67
2019-02-05T01:22:57.169Z,6.13
2019-02-05T01:28:02.487Z,4.87
2019-02-05T01:33:07.790Z,6.03
2019-02-05T01:38:13.110Z,4.40
2019-02-05T01:43:18.402Z,5.10
2019-02-05T01:48:23.751Z,7.77
2019-02-05T01:53:29.091Z,6.33
2019-02-05T01:58:34.546Z,6.27
2019-02-05T02:03:41.457Z,6.50
2019-02-05T02:08:46.732Z,4.80
2019-02-05T02:13:52.191Z,5.63
2019-02-05T02:18:57.543Z,5.80
2019-02-05T02:24:02.922Z,5.60
2019-02-05T02:29:08.361Z,6.17
2019-02-05T02:34:13.751Z,6.97
2019-02-05T02:39:19.366Z,7.93
2019-02-05T02:44:24.673Z,5.37
2019-02-05T02:49:29.995Z,6.27
2019-02-05T02:54:35.389Z,7.53
2019-02-05T02:59:40.644Z,6.13
2019-02-05T03:04:45.945Z,5.13
2019-02-05T03:09:51.311Z,8.23
2019-02-05T03:14:56.620Z,6.50
2019-02-05T03:20:01.965Z,6.07
2019-02-05T03:25:08.698Z,5.17
2019-02-05T03:30:17.842Z,4.67
2019-02-05T03:35:23.188Z,5.97
2019-02-05T03:41:07.656Z,8.10
2019-02-05T03:46:14.483Z,8.10
2019-02-05T03:52:14.474Z,10.77
2019-02-05T03:57:54.239Z,10.70
2019-02-05T04:04:21.312Z,9.80
2019-02-05T04:09:59.194Z,7.73
2019-02-05T04:15:51.435Z,13.27
2019-02-05T04:22:13.673Z,8.13
2019-02-05T04:28:05.186Z,9.70
2019-02-05T04:34:15.341Z,9.80
2019-02-05T04:40:37.875Z,8.50
2019-02-05T04:46:45.553Z,7.63
2019-02-05T04:52:49.459Z,6.20
2019-02-05T04:59:08.479Z,5.60
2019-02-05T05:05:03.211Z,7.03
2019-02-05T05:10:08.668Z,9.07
2019-02-05T05:15:13.996Z,5.97
2019-02-05T05:20:19.321Z,9.10
2019-02-05T05:25:24.949Z,9.67
2019-02-05T05:30:30.412Z,7.20
2019-02-05T05:35:41.809Z,9.47
2019-02-05T05:40:42.804Z,9.87
2019-02-05T05:45:48.239Z,9.33
2019-02-05T05:50:53.508Z,10.30
2019-02-05T05:55:58.830Z,9.10
2019-02-05T06:01:04.128Z,9.07
2019-02-05T06:06:09.454Z,7.23
2019-02-05T06:11:15.010Z,10.90
2019-02-05T06:16:20.433Z,11.53
2019-02-05T06:21:25.810Z,8.83
2019-02-05T06:26:31.149Z,7.80
2019-02-05T06:31:36.469Z,9.83
2019-02-05T06:36:41.751Z,7.00
2019-02-05T06:41:47.157Z,10.07
2019-02-05T06:46:52.521Z,11.10
2019-02-05T06:51:57.902Z,7.10
2019-02-05T06:57:03.320Z,11.47
2019-02-05T07:02:09.287Z,5.80
2019-02-05T07:07:14.695Z,7.13
2019-02-05T07:12:20.106Z,10.13
2019-02-05T07:17:25.835Z,7.57
2019-02-05T07:22:31.211Z,9.37
2019-02-05T07:27:36.625Z,10.50
2019-02-05T07:32:42.031Z,9.77
2019-02-05T07:37:47.365Z,8.20
2019-02-05T07:42:53.021Z,10.17
2019-02-05T07:47:58.339Z,9.53
2019-02-05T07:53:03.725Z,8.97
2019-02-05T07:58:09.118Z,10.47
2019-02-05T08:03:14.448Z,10.40
2019-02-05T08:08:19.825Z,9.97
2019-02-05T08:13:25.277Z,9.47
2019-02-05T08:18:30.673Z,11.37
2019-02-05T08:23:35.976Z,12.23
2019-02-05T08:28:41.310Z,12.70
2019-02-05T08:33:46.612Z,11.37
2019-02-05T08:38:51.952Z,11.23
2019-02-05T08:43:57.361Z,10.50
2019-02-05T08:49:02.719Z,12.10
2019-02-05T08:54:08.248Z,12.20
2019-02-05T08:59:13.602Z,14.87
2019-02-05T09:04:18.950Z,16.00
2019-02-05T09:09:24.293Z,13.23
2019-02-05T09:14:29.691Z,12.33
2019-02-05T09:19:35.075Z,12.03
2019-02-05T09:24:40.506Z,12.27
2019-02-05T09:29:45.921Z,11.13
2019-02-05T09:34:51.267Z,13.40
2019-02-05T09:39:56.589Z,11.77
2019-02-05T09:45:01.984Z,12.20
2019-02-05T09:50:09.094Z,12.40
2019-02-05T09:55:15.192Z,14.60
2019-02-05T10:00:23.966Z,11.27
2019-02-05T10:05:29.950Z,12.73
2019-02-05T10:10:35.413Z,13.50
2019-02-05T10:15:41.570Z,12.03
2019-02-05T10:20:46.921Z,13.40
2019-02-05T10:25:52.407Z,12.37
2019-02-05T10:30:57.819Z,12.90
2019-02-05T10:36:03.277Z,11.40
2019-02-05T10:41:08.778Z,10.03
2019-02-05T10:46:14.090Z,13.60
2019-02-05T10:51:19.459Z,12.30
2019-02-05T10:56:25.052Z,9.10
2019-02-05T11:01:30.462Z,11.90
2019-02-05T11:06:35.870Z,11.20
2019-02-05T11:11:41.237Z,13.23
2019-02-05T11:16:46.671Z,12.73
2019-02-05T11:21:52.217Z,10.63
2019-02-05T11:26:59.468Z,12.80
2019-02-05T11:32:04.894Z,13.53
2019-02-05T11:37:10.282Z,11.07
2019-02-05T11:42:15.623Z,10.67
2019-02-05T11:47:21.437Z,10.80
2019-02-05T11:52:26.873Z,14.00
2019-02-05T11:57:32.296Z,14.63
2019-02-05T12:02:37.640Z,13.40
2019-02-05T12:07:42.966Z,11.60
2019-02-05T12:12:48.378Z,10.33
2019-02-05T12:17:53.680Z,10.60
2019-02-05T12:22:59.631Z,10.00
2019-02-05T12:28:05.193Z,9.77
2019-02-05T12:33:10.530Z,10.53
2019-02-05T12:38:15.868Z,8.03
2019-02-05T12:43:21.173Z,10.10
2019-02-05T12:48:26.569Z,11.80
2019-02-05T12:53:31.918Z,11.73
2019-02-05T12:58:37.255Z,10.07
2019-02-05T13:03:42.933Z,10.50
2019-02-05T13:08:48.339Z,9.50
2019-02-05T13:13:53.777Z,10.90
2019-02-05T13:18:59.137Z,11.23
2019-02-05T13:24:04.475Z,11.07
2019-02-05T13:29:10.067Z,8.43
2019-02-05T13:34:15.515Z,10.63
2019-02-05T13:39:22.545Z,9.50
2019-02-05T13:44:27.998Z,8.97
2019-02-05T13:49:33.333Z,10.87
2019-02-05T13:54:38.748Z,11.63
2019-02-05T13:59:44.072Z,11.47
2019-02-05T14:04:49.368Z,12.17
2019-02-05T14:09:54.811Z,10.97
2019-02-05T14:15:00.509Z,10.60
2019-02-05T14:20:06.877Z,11.13
2019-02-05T14:25:13.390Z,9.10
2019-02-05T14:30:43.703Z,12.73
2019-02-05T14:35:49.250Z,9.43
2019-02-05T14:40:54.640Z,12.00
2019-02-05T14:46:00.327Z,12.03
2019-02-05T14:51:05.699Z,12.90
2019-02-05T14:56:11.083Z,12.10
2019-02-05T15:01:16.495Z,10.20
2019-02-05T15:06:21.800Z,12.13
2019-02-05T15:11:27.861Z,13.60
2019-02-05T15:16:33.244Z,10.77
2019-02-05T15:21:38.671Z,10.70
2019-02-05T15:26:44.196Z,9.00
2019-02-05T15:31:54.711Z,10.60
2019-02-05T15:36:56.805Z,11.93
2019-02-05T15:42:02.173Z,13.40
2019-02-05T15:47:07.602Z,10.03
2019-02-05T15:52:13.023Z,10.93
2019-02-05T15:57:18.534Z,13.60
2019-02-05T16:02:23.855Z,11.00
2019-02-05T16:07:29.549Z,13.90
2019-02-05T16:12:34.953Z,12.97
2019-02-05T16:17:40.427Z,11.60
2019-02-05T16:22:45.781Z,11.80
2019-02-05T16:27:51.121Z,11.90
2019-02-05T16:32:56.436Z,10.33
2019-02-05T16:38:01.932Z,11.63
2019-02-05T16:43:07.600Z,11.00
2019-02-05T16:48:12.951Z,11.70
2019-02-05T16:53:18.263Z,11.70
2019-02-05T16:58:23.836Z,10.47
2019-02-05T17:03:29.143Z,11.93
2019-02-05T17:08:34.447Z,11.20
2019-02-05T17:13:39.785Z,12.37
2019-02-05T17:18:45.168Z,12.30
2019-02-05T17:23:50.560Z,13.70
2019-02-05T17:28:55.998Z,12.10
2019-02-05T17:34:01.340Z,14.47
2019-02-05T17:39:10.343Z,11.87
2019-02-05T17:44:15.677Z,13.67
2019-02-05T17:49:21.155Z,13.13
2019-02-05T17:54:27.063Z,14.23
2019-02-05T17:59:32.363Z,15.40
2019-02-05T18:04:37.778Z,10.87
2019-02-05T18:09:43.110Z,18.97
2019-02-05T18:14:48.433Z,16.53
2019-02-05T18:19:53.846Z,16.30
2019-02-05T18:24:59.398Z,14.70
2019-02-05T18:30:06.674Z,16.57
2019-02-05T18:35:12.185Z,20.07
2019-02-05T18:40:19.117Z,16.27
2019-02-05T18:45:24.456Z,16.53
2019-02-05T18:50:30.509Z,17.17
2019-02-05T18:55:36.700Z,16.33
2019-02-05T19:00:43.733Z,16.20
2019-02-05T19:05:49.184Z,18.37
2019-02-05T19:10:54.808Z,19.47
2019-02-05T19:16:00.173Z,14.93
2019-02-05T19:21:05.815Z,16.33
2019-02-05T19:26:25.214Z,17.47
2019-02-05T19:31:36.572Z,16.83
2019-02-05T19:36:42.746Z,18.50
2019-02-05T19:41:48.285Z,19.57
2019-02-05T19:46:57.281Z,17.73
2019-02-05T19:52:03.137Z,15.23
2019-02-05T19:57:08.577Z,17.17
2019-02-05T20:02:14.705Z,17.13
2019-02-05T20:07:21.346Z,17.53
2019-02-05T20:12:26.876Z,14.60
2019-02-05T20:17:32.214Z,17.63
2019-02-05T20:22:37.582Z,14.90
2019-02-05T20:27:43.571Z,12.93
2019-02-05T20:32:48.972Z,16.27
2019-02-05T20:37:54.422Z,15.93
2019-02-05T20:43:00.353Z,13.23
2019-02-05T20:48:06.652Z,10.57
2019-02-05T20:53:14.279Z,10.03
2019-02-05T20:58:19.838Z,12.13
2019-02-05T21:03:25.196Z,9.90
2019-02-05T21:08:30.709Z,6.27
2019-02-05T21:13:36.099Z,6.60
2019-02-05T21:18:41.972Z,6.47
2019-02-05T21:23:47.540Z,7.07
2019-02-05T21:28:53.020Z,6.73
2019-02-05T21:33:58.606Z,7.37
2019-02-05T21:39:09.587Z,8.43
2019-02-05T21:44:14.909Z,11.03
2019-02-05T21:49:20.232Z,11.07
2019-02-05T21:54:25.963Z,11.70
2019-02-05T21:59:31.301Z,11.10
2019-02-05T22:04:37.120Z,12.07
2019-02-05T22:09:43.676Z,12.30
2019-02-05T22:14:49.268Z,12.83
2019-02-05T22:19:55.057Z,12.57
2019-02-05T22:25:00.490Z,14.70
2019-02-05T22:30:08.331Z,13.50
2019-02-05T22:35:14.127Z,12.57
2019-02-05T22:40:21.564Z,14.43
2019-02-05T22:45:29.432Z,15.53
2019-02-05T22:50:34.878Z,14.40
2019-02-05T22:55:40.269Z,13.60
2019-02-05T23:01:22.102Z,15.30
2019-02-05T23:07:12.497Z,13.33
2019-02-05T23:12:32.384Z,13.23
2019-02-05T23:17:37.783Z,15.97
2019-02-05T23:22:43.201Z,14.83
2019-02-05T23:27:48.535Z,13.73
2019-02-05T23:32:53.894Z,13.73
2019-02-05T23:37:59.370Z,11.47
2019-02-05T23:43:04.722Z,13.47
2019-02-05T23:48:10.120Z,15.27
2019-02-05T23:53:15.424Z,14.57
2019-02-05T23:58:20.796Z,16.73
